PANT METAR and TAF weather

Enter ICAO airport designator
Station Type Date Time Source
PANT METAR 2019/08/24 21:53 UTC NOAA

PANT 242153Z AUTO 26006G16KT 10SM BKN034 OVC042 18/13 A2987 RMK SLP114 T01780133 TSNO VIA AUTODIAL


Station Type Date Time Source
PANT Decoded METAR 2019/08/24 21:53 UTC NOAA

Station name not available
Aug 24, 2019 - 05:53 PM EDT / 2019.08.24 2153 UTC
Wind: from the W (260 degrees) at 7 MPH (6 KT) gusting to 18 MPH (16 KT):0
Visibility: 10 mile(s):0
Sky conditions: overcast
Temperature: 64.0 F (17.8 C)
Dew Point: 55.9 F (13.3 C)
Relative Humidity: 74%
Pressure (altimeter): 29.87 in. Hg (1011 hPa)
ob: PANT 242153Z AUTO 26006G16KT 10SM BKN034 OVC042 18/13 A2987 RMK SLP114 T01780133 TSNO VIA AUTODIAL
cycle: 22

Station Type Date Time Source
PANT TAF UTC NOAA

Error!

Example: see airport list